sensor_id;sensor_type;location;lat;lon;timestamp;temperature;humidity
22360;DHT22;11347;52.030;4.690;2022-12-18T00:00:40;12.70;36.50
22360;DHT22;11347;52.030;4.690;2022-12-18T00:03:06;12.70;36.40
22360;DHT22;11347;52.030;4.690;2022-12-18T00:05:32;12.70;36.40
22360;DHT22;11347;52.030;4.690;2022-12-18T00:07:57;12.70;36.40
22360;DHT22;11347;52.030;4.690;2022-12-18T00:10:23;12.70;36.40
22360;DHT22;11347;52.030;4.690;2022-12-18T00:12:48;12.70;36.20
22360;DHT22;11347;52.030;4.690;2022-12-18T00:15:14;12.70;36.20
22360;DHT22;11347;52.030;4.690;2022-12-18T00:17:40;12.70;36.20
22360;DHT22;11347;52.030;4.690;2022-12-18T00:20:06;12.70;36.10
22360;DHT22;11347;52.030;4.690;2022-12-18T00:22:32;12.70;36.10
22360;DHT22;11347;52.030;4.690;2022-12-18T00:24:57;12.70;36.10
22360;DHT22;11347;52.030;4.690;2022-12-18T00:27:23;12.70;36.10
22360;DHT22;11347;52.030;4.690;2022-12-18T00:29:48;12.70;36.20
22360;DHT22;11347;52.030;4.690;2022-12-18T00:32:14;12.70;36.20
22360;DHT22;11347;52.030;4.690;2022-12-18T00:34:39;12.70;36.10
22360;DHT22;11347;52.030;4.690;2022-12-18T00:37:05;12.70;36.10
22360;DHT22;11347;52.030;4.690;2022-12-18T00:39:30;12.70;36.00
22360;DHT22;11347;52.030;4.690;2022-12-18T00:41:56;12.70;36.00
22360;DHT22;11347;52.030;4.690;2022-12-18T00:44:40;12.70;36.00
22360;DHT22;11347;52.030;4.690;2022-12-18T00:47:06;12.70;36.00
22360;DHT22;11347;52.030;4.690;2022-12-18T00:49:31;12.70;36.00
22360;DHT22;11347;52.030;4.690;2022-12-18T00:51:57;12.70;36.00
22360;DHT22;11347;52.030;4.690;2022-12-18T00:54:23;12.70;35.90
22360;DHT22;11347;52.030;4.690;2022-12-18T00:56:48;12.70;36.50
22360;DHT22;11347;52.030;4.690;2022-12-18T00:59:14;12.70;35.90
22360;DHT22;11347;52.030;4.690;2022-12-18T01:01:40;12.70;35.90
22360;DHT22;11347;52.030;4.690;2022-12-18T01:04:05;12.70;35.80
22360;DHT22;11347;52.030;4.690;2022-12-18T01:06:31;12.70;35.80
22360;DHT22;11347;52.030;4.690;2022-12-18T01:08:57;12.70;35.80
22360;DHT22;11347;52.030;4.690;2022-12-18T01:11:22;12.70;35.90
22360;DHT22;11347;52.030;4.690;2022-12-18T01:13:48;12.70;35.80
22360;DHT22;11347;52.030;4.690;2022-12-18T01:16:16;12.70;35.80
22360;DHT22;11347;52.030;4.690;2022-12-18T01:18:42;12.70;35.80
22360;DHT22;11347;52.030;4.690;2022-12-18T01:21:09;12.70;36.30
22360;DHT22;11347;52.030;4.690;2022-12-18T01:23:35;12.70;36.60
22360;DHT22;11347;52.030;4.690;2022-12-18T01:26:09;12.70;36.80
22360;DHT22;11347;52.030;4.690;2022-12-18T01:28:36;12.70;37.20
22360;DHT22;11347;52.030;4.690;2022-12-18T01:31:11;12.70;37.60
22360;DHT22;11347;52.030;4.690;2022-12-18T01:33:37;12.70;37.90
22360;DHT22;11347;52.030;4.690;2022-12-18T01:36:03;12.70;37.90
22360;DHT22;11347;52.030;4.690;2022-12-18T01:38:28;12.70;38.00
22360;DHT22;11347;52.030;4.690;2022-12-18T01:41:01;12.80;38.10
22360;DHT22;11347;52.030;4.690;2022-12-18T01:43:51;12.80;38.20
22360;DHT22;11347;52.030;4.690;2022-12-18T01:46:19;12.80;38.40
22360;DHT22;11347;52.030;4.690;2022-12-18T01:48:47;12.80;38.40
22360;DHT22;11347;52.030;4.690;2022-12-18T01:51:13;12.80;38.40
22360;DHT22;11347;52.030;4.690;2022-12-18T01:53:41;12.80;38.20
22360;DHT22;11347;52.030;4.690;2022-12-18T01:56:07;12.80;38.10
22360;DHT22;11347;52.030;4.690;2022-12-18T01:59:03;12.80;38.00
22360;DHT22;11347;52.030;4.690;2022-12-18T02:01:30;12.80;38.10
22360;DHT22;11347;52.030;4.690;2022-12-18T02:03:56;12.80;38.20
22360;DHT22;11347;52.030;4.690;2022-12-18T02:06:42;12.80;38.20
22360;DHT22;11347;52.030;4.690;2022-12-18T02:09:54;12.80;38.20
22360;DHT22;11347;52.030;4.690;2022-12-18T02:12:10;12.80;38.10
22360;DHT22;11347;52.030;4.690;2022-12-18T02:14:45;12.80;38.10
22360;DHT22;11347;52.030;4.690;2022-12-18T02:17:19;12.80;37.90
22360;DHT22;11347;52.030;4.690;2022-12-18T02:20:07;12.80;37.90
22360;DHT22;11347;52.030;4.690;2022-12-18T02:28:19;12.80;37.70
22360;DHT22;11347;52.030;4.690;2022-12-18T02:30:48;12.80;37.90
22360;DHT22;11347;52.030;4.690;2022-12-18T02:33:14;12.80;38.10
22360;DHT22;11347;52.030;4.690;2022-12-18T02:35:41;12.80;37.90
22360;DHT22;11347;52.030;4.690;2022-12-18T02:38:09;12.80;37.80
22360;DHT22;11347;52.030;4.690;2022-12-18T02:40:36;12.80;37.70
22360;DHT22;11347;52.030;4.690;2022-12-18T02:43:12;12.80;37.60
22360;DHT22;11347;52.030;4.690;2022-12-18T02:45:53;12.80;37.50
22360;DHT22;11347;52.030;4.690;2022-12-18T02:48:27;12.80;37.50
22360;DHT22;11347;52.030;4.690;2022-12-18T02:51:23;12.80;37.50
22360;DHT22;11347;52.030;4.690;2022-12-18T02:53:56;12.70;37.30
22360;DHT22;11347;52.030;4.690;2022-12-18T02:56:30;12.70;37.30
22360;DHT22;11347;52.030;4.690;2022-12-18T02:59:03;12.70;37.20
22360;DHT22;11347;52.030;4.690;2022-12-18T03:04:12;12.70;37.50
22360;DHT22;11347;52.030;4.690;2022-12-18T03:06:43;12.70;37.50
22360;DHT22;11347;52.030;4.690;2022-12-18T03:09:14;12.70;37.30
22360;DHT22;11347;52.030;4.690;2022-12-18T03:11:44;12.70;37.30
22360;DHT22;11347;52.030;4.690;2022-12-18T03:14:32;12.70;37.30
22360;DHT22;11347;52.030;4.690;2022-12-18T03:17:01;12.70;37.30
22360;DHT22;11347;52.030;4.690;2022-12-18T03:19:29;12.70;37.20
22360;DHT22;11347;52.030;4.690;2022-12-18T03:21:59;12.70;37.20
22360;DHT22;11347;52.030;4.690;2022-12-18T03:24:28;12.70;37.10
22360;DHT22;11347;52.030;4.690;2022-12-18T03:26:58;12.70;37.00
22360;DHT22;11347;52.030;4.690;2022-12-18T03:32:15;12.70;36.90
22360;DHT22;11347;52.030;4.690;2022-12-18T03:34:46;12.70;37.00
22360;DHT22;11347;52.030;4.690;2022-12-18T03:37:13;12.60;36.90
22360;DHT22;11347;52.030;4.690;2022-12-18T03:39:39;12.70;36.90
22360;DHT22;11347;52.030;4.690;2022-12-18T03:42:10;12.70;36.90
22360;DHT22;11347;52.030;4.690;2022-12-18T03:44:44;12.70;36.90
22360;DHT22;11347;52.030;4.690;2022-12-18T03:47:27;12.60;36.60
22360;DHT22;11347;52.030;4.690;2022-12-18T03:52:33;12.60;36.40
22360;DHT22;11347;52.030;4.690;2022-12-18T03:55:01;12.60;36.40
22360;DHT22;11347;52.030;4.690;2022-12-18T03:57:30;12.60;36.50
22360;DHT22;11347;52.030;4.690;2022-12-18T04:00:09;12.60;36.50
22360;DHT22;11347;52.030;4.690;2022-12-18T04:02:38;12.60;36.50
22360;DHT22;11347;52.030;4.690;2022-12-18T04:05:07;12.60;36.40
22360;DHT22;11347;52.030;4.690;2022-12-18T04:07:33;12.60;36.30
22360;DHT22;11347;52.030;4.690;2022-12-18T04:10:00;12.60;36.20
22360;DHT22;11347;52.030;4.690;2022-12-18T04:12:26;12.60;36.20
22360;DHT22;11347;52.030;4.690;2022-12-18T04:14:53;12.50;36.00
22360;DHT22;11347;52.030;4.690;2022-12-18T04:17:19;12.60;36.00
22360;DHT22;11347;52.030;4.690;2022-12-18T04:19:45;12.60;36.00
22360;DHT22;11347;52.030;4.690;2022-12-18T04:22:10;12.50;35.90
22360;DHT22;11347;52.030;4.690;2022-12-18T04:24:36;12.60;35.90
22360;DHT22;11347;52.030;4.690;2022-12-18T04:27:02;12.50;35.80
22360;DHT22;11347;52.030;4.690;2022-12-18T04:29:28;12.50;35.70
22360;DHT22;11347;52.030;4.690;2022-12-18T04:31:53;12.50;35.70
22360;DHT22;11347;52.030;4.690;2022-12-18T04:34:22;12.50;35.60
22360;DHT22;11347;52.030;4.690;2022-12-18T04:36:47;12.50;35.60
22360;DHT22;11347;52.030;4.690;2022-12-18T04:39:13;12.50;35.50
22360;DHT22;11347;52.030;4.690;2022-12-18T04:41:39;12.50;35.50
22360;DHT22;11347;52.030;4.690;2022-12-18T04:44:05;12.50;35.70
22360;DHT22;11347;52.030;4.690;2022-12-18T04:46:30;12.50;35.70
22360;DHT22;11347;52.030;4.690;2022-12-18T04:48:56;12.50;35.70
22360;DHT22;11347;52.030;4.690;2022-12-18T04:51:22;12.50;35.70
22360;DHT22;11347;52.030;4.690;2022-12-18T04:53:47;12.40;35.60
22360;DHT22;11347;52.030;4.690;2022-12-18T04:56:14;12.40;35.60
22360;DHT22;11347;52.030;4.690;2022-12-18T04:58:42;12.40;35.50
22360;DHT22;11347;52.030;4.690;2022-12-18T05:01:09;12.40;35.60
22360;DHT22;11347;52.030;4.690;2022-12-18T05:03:36;12.40;35.60
22360;DHT22;11347;52.030;4.690;2022-12-18T05:06:02;12.40;35.60
22360;DHT22;11347;52.030;4.690;2022-12-18T05:08:31;12.40;35.70
22360;DHT22;11347;52.030;4.690;2022-12-18T05:11:01;12.40;35.60
22360;DHT22;11347;52.030;4.690;2022-12-18T05:13:28;12.40;35.60
22360;DHT22;11347;52.030;4.690;2022-12-18T05:15:54;12.40;35.50
22360;DHT22;11347;52.030;4.690;2022-12-18T05:18:20;12.40;35.40
22360;DHT22;11347;52.030;4.690;2022-12-18T05:20:46;12.40;35.50
22360;DHT22;11347;52.030;4.690;2022-12-18T05:23:11;12.30;35.40
22360;DHT22;11347;52.030;4.690;2022-12-18T05:25:37;12.30;35.40
22360;DHT22;11347;52.030;4.690;2022-12-18T05:28:02;12.30;35.40
22360;DHT22;11347;52.030;4.690;2022-12-18T05:30:28;12.30;35.40
22360;DHT22;11347;52.030;4.690;2022-12-18T05:32:53;12.30;35.30
22360;DHT22;11347;52.030;4.690;2022-12-18T05:35:19;12.20;35.20
22360;DHT22;11347;52.030;4.690;2022-12-18T05:37:45;12.30;35.30
22360;DHT22;11347;52.030;4.690;2022-12-18T05:40:11;12.20;35.10
22360;DHT22;11347;52.030;4.690;2022-12-18T05:42:39;12.20;35.10
22360;DHT22;11347;52.030;4.690;2022-12-18T05:45:05;12.20;35.00
22360;DHT22;11347;52.030;4.690;2022-12-18T05:47:31;12.20;35.00
22360;DHT22;11347;52.030;4.690;2022-12-18T05:49:56;12.20;35.00
22360;DHT22;11347;52.030;4.690;2022-12-18T05:52:22;12.20;34.90
22360;DHT22;11347;52.030;4.690;2022-12-18T05:54:48;12.20;34.90
22360;DHT22;11347;52.030;4.690;2022-12-18T05:57:13;12.20;35.00
22360;DHT22;11347;52.030;4.690;2022-12-18T05:59:39;12.10;34.80
22360;DHT22;11347;52.030;4.690;2022-12-18T06:02:04;12.20;35.00
22360;DHT22;11347;52.030;4.690;2022-12-18T06:04:30;12.20;35.00
22360;DHT22;11347;52.030;4.690;2022-12-18T06:06:56;12.10;34.80
22360;DHT22;11347;52.030;4.690;2022-12-18T06:09:22;12.10;35.60
22360;DHT22;11347;52.030;4.690;2022-12-18T06:11:47;12.10;34.80
22360;DHT22;11347;52.030;4.690;2022-12-18T06:14:13;12.10;35.60
22360;DHT22;11347;52.030;4.690;2022-12-18T06:16:39;12.10;35.20
22360;DHT22;11347;52.030;4.690;2022-12-18T06:19:05;12.10;35.10
22360;DHT22;11347;52.030;4.690;2022-12-18T06:21:32;12.10;34.90
22360;DHT22;11347;52.030;4.690;2022-12-18T06:23:58;12.10;34.80
22360;DHT22;11347;52.030;4.690;2022-12-18T06:26:24;12.10;34.80
22360;DHT22;11347;52.030;4.690;2022-12-18T06:28:49;12.10;34.80
22360;DHT22;11347;52.030;4.690;2022-12-18T06:31:15;12.10;34.80
22360;DHT22;11347;52.030;4.690;2022-12-18T06:33:40;12.10;34.80
22360;DHT22;11347;52.030;4.690;2022-12-18T06:36:11;12.10;34.60
22360;DHT22;11347;52.030;4.690;2022-12-18T06:38:39;12.00;34.50
22360;DHT22;11347;52.030;4.690;2022-12-18T06:41:14;12.00;34.50
22360;DHT22;11347;52.030;4.690;2022-12-18T06:43:40;12.00;34.50
22360;DHT22;11347;52.030;4.690;2022-12-18T06:46:05;12.00;34.60
22360;DHT22;11347;52.030;4.690;2022-12-18T06:48:31;12.00;34.70
22360;DHT22;11347;52.030;4.690;2022-12-18T06:50:57;12.00;34.50
22360;DHT22;11347;52.030;4.690;2022-12-18T06:53:23;12.00;34.40
22360;DHT22;11347;52.030;4.690;2022-12-18T06:55:48;12.00;34.40
22360;DHT22;11347;52.030;4.690;2022-12-18T06:58:14;12.00;34.40
22360;DHT22;11347;52.030;4.690;2022-12-18T07:00:40;12.00;34.40
22360;DHT22;11347;52.030;4.690;2022-12-18T07:03:05;12.00;34.40
22360;DHT22;11347;52.030;4.690;2022-12-18T07:05:31;12.00;34.50
22360;DHT22;11347;52.030;4.690;2022-12-18T07:07:57;11.90;34.50
22360;DHT22;11347;52.030;4.690;2022-12-18T07:10:23;11.90;34.40
22360;DHT22;11347;52.030;4.690;2022-12-18T07:12:48;11.90;34.30
22360;DHT22;11347;52.030;4.690;2022-12-18T07:15:14;11.90;34.40
22360;DHT22;11347;52.030;4.690;2022-12-18T07:17:39;11.90;34.80
22360;DHT22;11347;52.030;4.690;2022-12-18T07:20:05;11.90;35.10
22360;DHT22;11347;52.030;4.690;2022-12-18T07:22:31;11.90;34.70
22360;DHT22;11347;52.030;4.690;2022-12-18T07:24:57;11.90;34.60
22360;DHT22;11347;52.030;4.690;2022-12-18T07:27:22;11.90;34.40
22360;DHT22;11347;52.030;4.690;2022-12-18T07:29:48;11.90;34.20
22360;DHT22;11347;52.030;4.690;2022-12-18T07:32:14;11.90;34.90
22360;DHT22;11347;52.030;4.690;2022-12-18T07:34:39;11.90;34.20
22360;DHT22;11347;52.030;4.690;2022-12-18T07:37:05;11.90;34.20
22360;DHT22;11347;52.030;4.690;2022-12-18T07:39:31;11.90;34.20
22360;DHT22;11347;52.030;4.690;2022-12-18T07:41:56;11.80;34.00
22360;DHT22;11347;52.030;4.690;2022-12-18T07:44:40;11.80;34.00
22360;DHT22;11347;52.030;4.690;2022-12-18T07:47:06;11.80;34.00
22360;DHT22;11347;52.030;4.690;2022-12-18T07:49:32;11.80;34.10
22360;DHT22;11347;52.030;4.690;2022-12-18T07:51:58;11.80;34.10
22360;DHT22;11347;52.030;4.690;2022-12-18T07:54:24;11.80;34.30
22360;DHT22;11347;52.030;4.690;2022-12-18T07:56:50;11.80;34.20
22360;DHT22;11347;52.030;4.690;2022-12-18T07:59:17;11.80;34.20
22360;DHT22;11347;52.030;4.690;2022-12-18T08:01:43;11.80;34.10
22360;DHT22;11347;52.030;4.690;2022-12-18T08:04:08;11.80;34.30
22360;DHT22;11347;52.030;4.690;2022-12-18T08:06:34;11.80;34.60
22360;DHT22;11347;52.030;4.690;2022-12-18T08:08:59;11.80;34.40
22360;DHT22;11347;52.030;4.690;2022-12-18T08:11:27;11.80;34.30
22360;DHT22;11347;52.030;4.690;2022-12-18T08:13:53;11.80;34.30
22360;DHT22;11347;52.030;4.690;2022-12-18T08:16:20;11.80;34.20
22360;DHT22;11347;52.030;4.690;2022-12-18T08:18:49;11.80;34.30
22360;DHT22;11347;52.030;4.690;2022-12-18T08:21:28;11.80;34.30
22360;DHT22;11347;52.030;4.690;2022-12-18T08:23:56;11.70;34.60
22360;DHT22;11347;52.030;4.690;2022-12-18T08:26:24;11.80;34.50
22360;DHT22;11347;52.030;4.690;2022-12-18T08:28:53;11.70;34.20
22360;DHT22;11347;52.030;4.690;2022-12-18T08:31:19;11.70;34.70
22360;DHT22;11347;52.030;4.690;2022-12-18T08:33:51;11.70;34.20
22360;DHT22;11347;52.030;4.690;2022-12-18T08:36:18;11.80;34.90
22360;DHT22;11347;52.030;4.690;2022-12-18T08:38:43;11.70;34.00
22360;DHT22;11347;52.030;4.690;2022-12-18T08:41:11;11.70;34.00
22360;DHT22;11347;52.030;4.690;2022-12-18T08:43:37;11.70;34.20
22360;DHT22;11347;52.030;4.690;2022-12-18T08:46:23;11.70;34.30
22360;DHT22;11347;52.030;4.690;2022-12-18T08:48:53;11.70;34.20
22360;DHT22;11347;52.030;4.690;2022-12-18T08:51:20;11.70;34.20
22360;DHT22;11347;52.030;4.690;2022-12-18T08:53:46;11.70;34.20
22360;DHT22;11347;52.030;4.690;2022-12-18T08:56:12;11.70;34.80
22360;DHT22;11347;52.030;4.690;2022-12-18T08:58:42;11.70;34.70
22360;DHT22;11347;52.030;4.690;2022-12-18T09:01:09;11.70;34.50
22360;DHT22;11347;52.030;4.690;2022-12-18T09:03:36;11.70;35.10
22360;DHT22;11347;52.030;4.690;2022-12-18T09:06:01;11.80;35.10
22360;DHT22;11347;52.030;4.690;2022-12-18T09:08:28;11.80;34.30
22360;DHT22;11347;52.030;4.690;2022-12-18T09:10:54;11.80;34.50
22360;DHT22;11347;52.030;4.690;2022-12-18T09:13:20;11.80;33.60
22360;DHT22;11347;52.030;4.690;2022-12-18T09:15:55;11.80;33.30
22360;DHT22;11347;52.030;4.690;2022-12-18T09:18:22;11.80;33.10
22360;DHT22;11347;52.030;4.690;2022-12-18T09:20:48;11.80;32.90
22360;DHT22;11347;52.030;4.690;2022-12-18T09:23:15;11.80;32.80
22360;DHT22;11347;52.030;4.690;2022-12-18T09:25:41;11.80;32.70
22360;DHT22;11347;52.030;4.690;2022-12-18T09:28:13;11.80;32.50
22360;DHT22;11347;52.030;4.690;2022-12-18T09:30:49;11.80;32.50
22360;DHT22;11347;52.030;4.690;2022-12-18T09:33:16;11.80;32.30
22360;DHT22;11347;52.030;4.690;2022-12-18T09:35:43;11.70;32.20
22360;DHT22;11347;52.030;4.690;2022-12-18T09:38:19;11.70;32.10
22360;DHT22;11347;52.030;4.690;2022-12-18T09:40:53;11.70;32.10
22360;DHT22;11347;52.030;4.690;2022-12-18T09:43:39;11.70;31.90
22360;DHT22;11347;52.030;4.690;2022-12-18T09:46:10;11.70;32.00
22360;DHT22;11347;52.030;4.690;2022-12-18T09:48:42;11.70;31.90
22360;DHT22;11347;52.030;4.690;2022-12-18T09:51:18;11.70;31.80
22360;DHT22;11347;52.030;4.690;2022-12-18T09:53:50;11.70;31.80
22360;DHT22;11347;52.030;4.690;2022-12-18T09:56:18;11.70;31.70
22360;DHT22;11347;52.030;4.690;2022-12-18T09:58:58;11.70;31.70
22360;DHT22;11347;52.030;4.690;2022-12-18T10:01:24;11.70;31.60
22360;DHT22;11347;52.030;4.690;2022-12-18T10:03:52;11.70;31.70
22360;DHT22;11347;52.030;4.690;2022-12-18T10:09:01;11.70;31.50
22360;DHT22;11347;52.030;4.690;2022-12-18T10:11:48;11.70;31.40
22360;DHT22;11347;52.030;4.690;2022-12-18T10:14:27;11.70;31.40
22360;DHT22;11347;52.030;4.690;2022-12-18T10:17:15;11.70;31.30
22360;DHT22;11347;52.030;4.690;2022-12-18T10:25:28;11.70;31.20
22360;DHT22;11347;52.030;4.690;2022-12-18T10:28:06;11.70;31.20
22360;DHT22;11347;52.030;4.690;2022-12-18T10:30:32;11.70;31.20
22360;DHT22;11347;52.030;4.690;2022-12-18T10:33:02;11.70;31.20
22360;DHT22;11347;52.030;4.690;2022-12-18T10:35:29;11.70;31.20
22360;DHT22;11347;52.030;4.690;2022-12-18T10:40:28;11.70;31.10
22360;DHT22;11347;52.030;4.690;2022-12-18T10:43:04;11.70;31.10
22360;DHT22;11347;52.030;4.690;2022-12-18T10:45:30;11.70;31.00
22360;DHT22;11347;52.030;4.690;2022-12-18T10:48:03;11.70;31.00
22360;DHT22;11347;52.030;4.690;2022-12-18T10:50:32;11.70;31.00
22360;DHT22;11347;52.030;4.690;2022-12-18T10:53:00;11.70;31.00
22360;DHT22;11347;52.030;4.690;2022-12-18T10:55:31;11.70;31.00
22360;DHT22;11347;52.030;4.690;2022-12-18T10:58:21;11.70;31.00
22360;DHT22;11347;52.030;4.690;2022-12-18T11:01:07;11.70;30.90
22360;DHT22;11347;52.030;4.690;2022-12-18T11:06:08;11.70;30.90
22360;DHT22;11347;52.030;4.690;2022-12-18T11:08:34;11.70;30.90
22360;DHT22;11347;52.030;4.690;2022-12-18T11:11:00;11.70;30.80
22360;DHT22;11347;52.030;4.690;2022-12-18T11:13:28;11.70;30.80
22360;DHT22;11347;52.030;4.690;2022-12-18T11:15:54;11.70;30.80
22360;DHT22;11347;52.030;4.690;2022-12-18T11:18:32;11.70;30.70
22360;DHT22;11347;52.030;4.690;2022-12-18T11:21:09;11.70;30.70
22360;DHT22;11347;52.030;4.690;2022-12-18T11:23:37;11.70;30.70
22360;DHT22;11347;52.030;4.690;2022-12-18T11:26:09;11.70;30.70
22360;DHT22;11347;52.030;4.690;2022-12-18T11:28:41;11.70;30.60
22360;DHT22;11347;52.030;4.690;2022-12-18T11:31:28;11.70;30.60
22360;DHT22;11347;52.030;4.690;2022-12-18T11:34:09;11.70;30.60
22360;DHT22;11347;52.030;4.690;2022-12-18T11:36:42;11.70;30.70
22360;DHT22;11347;52.030;4.690;2022-12-18T11:39:20;11.70;30.60
22360;DHT22;11347;52.030;4.690;2022-12-18T11:44:50;11.70;30.60
22360;DHT22;11347;52.030;4.690;2022-12-18T11:49:49;11.70;30.60
22360;DHT22;11347;52.030;4.690;2022-12-18T11:52:24;11.70;30.60
22360;DHT22;11347;52.030;4.690;2022-12-18T11:54:53;11.70;30.60
22360;DHT22;11347;52.030;4.690;2022-12-18T11:57:37;11.70;30.50
22360;DHT22;11347;52.030;4.690;2022-12-18T12:00:22;11.70;30.60
22360;DHT22;11347;52.030;4.690;2022-12-18T12:05:40;11.70;30.40
22360;DHT22;11347;52.030;4.690;2022-12-18T12:11:00;11.70;30.50
22360;DHT22;11347;52.030;4.690;2022-12-18T12:19:25;11.70;30.40
22360;DHT22;11347;52.030;4.690;2022-12-18T12:22:03;11.70;30.50
22360;DHT22;11347;52.030;4.690;2022-12-18T12:30:46;11.70;30.50
22360;DHT22;11347;52.030;4.690;2022-12-18T12:36:21;11.70;30.50
22360;DHT22;11347;52.030;4.690;2022-12-18T12:38:55;11.70;30.50
22360;DHT22;11347;52.030;4.690;2022-12-18T12:41:25;11.70;30.40
22360;DHT22;11347;52.030;4.690;2022-12-18T12:44:16;11.70;30.50
22360;DHT22;11347;52.030;4.690;2022-12-18T12:46:44;11.70;30.60
22360;DHT22;11347;52.030;4.690;2022-12-18T12:49:19;11.70;30.50
22360;DHT22;11347;52.030;4.690;2022-12-18T12:51:57;11.70;30.60
22360;DHT22;11347;52.030;4.690;2022-12-18T12:54:28;11.70;30.60
22360;DHT22;11347;52.030;4.690;2022-12-18T12:57:01;11.70;30.60
22360;DHT22;11347;52.030;4.690;2022-12-18T12:59:41;11.70;30.60
22360;DHT22;11347;52.030;4.690;2022-12-18T13:05:19;11.70;30.60
22360;DHT22;11347;52.030;4.690;2022-12-18T13:07:51;11.60;30.60
22360;DHT22;11347;52.030;4.690;2022-12-18T13:13:05;11.70;30.90
22360;DHT22;11347;52.030;4.690;2022-12-18T13:15:49;11.60;30.90
22360;DHT22;11347;52.030;4.690;2022-12-18T13:18:28;11.70;31.00
22360;DHT22;11347;52.030;4.690;2022-12-18T13:25:49;11.60;31.20
22360;DHT22;11347;52.030;4.690;2022-12-18T13:31:01;11.70;31.40
22360;DHT22;11347;52.030;4.690;2022-12-18T13:33:45;11.70;31.50
22360;DHT22;11347;52.030;4.690;2022-12-18T13:36:30;11.70;31.50
22360;DHT22;11347;52.030;4.690;2022-12-18T13:41:44;11.70;31.70
22360;DHT22;11347;52.030;4.690;2022-12-18T13:46:55;11.70;31.60
22360;DHT22;11347;52.030;4.690;2022-12-18T13:49:25;11.70;31.60
22360;DHT22;11347;52.030;4.690;2022-12-18T13:51:54;11.70;31.70
22360;DHT22;11347;52.030;4.690;2022-12-18T13:54:27;11.70;31.80
22360;DHT22;11347;52.030;4.690;2022-12-18T13:56:54;11.70;31.80
22360;DHT22;11347;52.030;4.690;2022-12-18T13:59:36;11.70;31.80
22360;DHT22;11347;52.030;4.690;2022-12-18T14:02:22;11.70;31.90
22360;DHT22;11347;52.030;4.690;2022-12-18T14:04:49;11.70;31.90
22360;DHT22;11347;52.030;4.690;2022-12-18T14:07:25;11.70;31.90
22360;DHT22;11347;52.030;4.690;2022-12-18T14:09:59;11.70;31.90
22360;DHT22;11347;52.030;4.690;2022-12-18T14:12:29;11.70;32.00
22360;DHT22;11347;52.030;4.690;2022-12-18T14:20:27;11.70;32.10
22360;DHT22;11347;52.030;4.690;2022-12-18T14:22:54;11.70;32.10
22360;DHT22;11347;52.030;4.690;2022-12-18T14:27:51;11.70;32.20
22360;DHT22;11347;52.030;4.690;2022-12-18T14:33:22;11.70;32.30
22360;DHT22;11347;52.030;4.690;2022-12-18T14:36:01;11.70;32.40
22360;DHT22;11347;52.030;4.690;2022-12-18T14:38:36;11.70;32.30
22360;DHT22;11347;52.030;4.690;2022-12-18T14:41:11;11.70;32.30
22360;DHT22;11347;52.030;4.690;2022-12-18T14:43:39;11.70;32.30
22360;DHT22;11347;52.030;4.690;2022-12-18T14:48:51;11.70;32.50
22360;DHT22;11347;52.030;4.690;2022-12-18T14:51:27;11.70;32.40
22360;DHT22;11347;52.030;4.690;2022-12-18T14:54:01;11.70;32.50
22360;DHT22;11347;52.030;4.690;2022-12-18T14:56:32;11.70;32.40
22360;DHT22;11347;52.030;4.690;2022-12-18T14:59:12;11.70;32.50
22360;DHT22;11347;52.030;4.690;2022-12-18T15:02:04;11.70;32.50
22360;DHT22;11347;52.030;4.690;2022-12-18T15:04:37;11.70;32.60
22360;DHT22;11347;52.030;4.690;2022-12-18T15:09:32;11.70;32.70
22360;DHT22;11347;52.030;4.690;2022-12-18T15:12:00;11.70;32.80
22360;DHT22;11347;52.030;4.690;2022-12-18T15:14:33;11.70;32.70
22360;DHT22;11347;52.030;4.690;2022-12-18T15:17:01;11.70;32.70
22360;DHT22;11347;52.030;4.690;2022-12-18T15:19:41;11.80;32.90
22360;DHT22;11347;52.030;4.690;2022-12-18T15:22:18;11.70;32.70
22360;DHT22;11347;52.030;4.690;2022-12-18T15:24:45;11.80;33.00
22360;DHT22;11347;52.030;4.690;2022-12-18T15:27:35;11.70;32.80
22360;DHT22;11347;52.030;4.690;2022-12-18T15:32:38;11.70;32.70
22360;DHT22;11347;52.030;4.690;2022-12-18T15:35:16;11.70;32.80
22360;DHT22;11347;52.030;4.690;2022-12-18T15:37:43;11.70;32.90
22360;DHT22;11347;52.030;4.690;2022-12-18T15:40:21;11.70;32.90
22360;DHT22;11347;52.030;4.690;2022-12-18T15:42:47;11.70;32.90
22360;DHT22;11347;52.030;4.690;2022-12-18T15:45:32;11.70;33.00
22360;DHT22;11347;52.030;4.690;2022-12-18T15:47:58;11.70;33.00
22360;DHT22;11347;52.030;4.690;2022-12-18T15:50:24;11.80;33.30
22360;DHT22;11347;52.030;4.690;2022-12-18T15:52:51;11.70;33.10
22360;DHT22;11347;52.030;4.690;2022-12-18T15:55:23;11.70;33.10
22360;DHT22;11347;52.030;4.690;2022-12-18T15:58:09;11.80;33.10
22360;DHT22;11347;52.030;4.690;2022-12-18T16:00:36;11.70;33.00
22360;DHT22;11347;52.030;4.690;2022-12-18T16:03:03;11.80;33.10
22360;DHT22;11347;52.030;4.690;2022-12-18T16:05:29;11.80;33.10
22360;DHT22;11347;52.030;4.690;2022-12-18T16:07:55;11.80;33.20
22360;DHT22;11347;52.030;4.690;2022-12-18T16:10:20;11.80;33.10
22360;DHT22;11347;52.030;4.690;2022-12-18T16:12:46;11.80;33.20
22360;DHT22;11347;52.030;4.690;2022-12-18T16:15:14;11.80;33.20
22360;DHT22;11347;52.030;4.690;2022-12-18T16:17:42;11.80;33.30
22360;DHT22;11347;52.030;4.690;2022-12-18T16:20:16;11.80;33.20
22360;DHT22;11347;52.030;4.690;2022-12-18T16:22:43;11.80;33.20
22360;DHT22;11347;52.030;4.690;2022-12-18T16:25:26;11.80;33.20
22360;DHT22;11347;52.030;4.690;2022-12-18T16:27:53;11.80;33.30
22360;DHT22;11347;52.030;4.690;2022-12-18T16:30:28;11.80;33.20
22360;DHT22;11347;52.030;4.690;2022-12-18T16:32:55;11.80;33.20
22360;DHT22;11347;52.030;4.690;2022-12-18T16:35:21;11.80;33.20
22360;DHT22;11347;52.030;4.690;2022-12-18T16:37:47;11.80;33.30
22360;DHT22;11347;52.030;4.690;2022-12-18T16:40:15;11.80;33.30
22360;DHT22;11347;52.030;4.690;2022-12-18T16:42:42;11.80;33.30
22360;DHT22;11347;52.030;4.690;2022-12-18T16:45:10;11.80;33.20
22360;DHT22;11347;52.030;4.690;2022-12-18T16:47:36;11.80;33.30
22360;DHT22;11347;52.030;4.690;2022-12-18T16:50:02;11.80;33.20
22360;DHT22;11347;52.030;4.690;2022-12-18T16:52:28;11.80;33.20
22360;DHT22;11347;52.030;4.690;2022-12-18T16:54:54;11.80;33.10
22360;DHT22;11347;52.030;4.690;2022-12-18T16:57:21;11.80;33.30
22360;DHT22;11347;52.030;4.690;2022-12-18T16:59:47;11.80;33.30
22360;DHT22;11347;52.030;4.690;2022-12-18T17:02:23;11.80;33.30
22360;DHT22;11347;52.030;4.690;2022-12-18T17:04:52;11.90;33.30
22360;DHT22;11347;52.030;4.690;2022-12-18T17:07:18;11.90;33.30
22360;DHT22;11347;52.030;4.690;2022-12-18T17:09:44;11.90;33.30
22360;DHT22;11347;52.030;4.690;2022-12-18T17:12:09;11.90;33.40
22360;DHT22;11347;52.030;4.690;2022-12-18T17:14:36;11.90;33.40
22360;DHT22;11347;52.030;4.690;2022-12-18T17:17:01;11.90;33.40